createdAt,value
2023-04-06T00:01:53.778Z,2.13
2023-04-06T00:04:21.697Z,1.42
2023-04-06T00:06:49.046Z,1.63
2023-04-06T00:09:16.639Z,3.42
2023-04-06T00:11:44.935Z,1.40
2023-04-06T00:14:12.848Z,3.15
2023-04-06T00:16:40.995Z,2.88
2023-04-06T00:19:08.769Z,2.83
2023-04-06T00:21:36.134Z,3.33
2023-04-06T00:24:05.059Z,8.40
2023-04-06T00:26:32.542Z,2.38
2023-04-06T00:29:00.204Z,1.63
2023-04-06T00:31:27.760Z,3.53
2023-04-06T00:33:55.457Z,2.10
2023-04-06T00:36:22.935Z,2.97
2023-04-06T00:38:50.457Z,3.00
2023-04-06T00:41:19.995Z,3.08
2023-04-06T00:43:47.637Z,2.33
2023-04-06T00:46:15.284Z,2.17
2023-04-06T00:48:43.057Z,4.35
2023-04-06T00:51:11.047Z,2.78
2023-04-06T00:53:38.810Z,3.83
2023-04-06T00:56:06.505Z,4.25
2023-04-06T00:58:34.077Z,4.45
2023-04-06T01:01:02.135Z,5.05
2023-04-06T01:03:29.799Z,4.00
2023-04-06T01:05:59.400Z,2.15
2023-04-06T01:08:26.979Z,3.80
2023-04-06T01:10:54.559Z,5.03
2023-04-06T01:13:22.761Z,2.35
2023-04-06T01:15:51.174Z,6.10
2023-04-06T01:18:18.922Z,3.53
2023-04-06T01:20:46.404Z,4.85
2023-04-06T01:23:14.017Z,3.97
2023-04-06T01:25:41.565Z,3.05
2023-04-06T01:28:09.116Z,1.85
2023-04-06T01:30:36.716Z,3.75
2023-04-06T01:33:04.347Z,2.58
2023-04-06T01:35:32.092Z,3.08
2023-04-06T01:37:59.727Z,2.90
2023-04-06T01:40:27.376Z,3.90
2023-04-06T01:42:55.063Z,5.10
2023-04-06T01:45:22.562Z,5.78
2023-04-06T01:47:50.468Z,3.97
2023-04-06T01:50:17.992Z,4.05
2023-04-06T01:52:45.849Z,3.50
2023-04-06T01:55:13.471Z,2.47
2023-04-06T01:57:41.152Z,4.45
2023-04-06T02:00:09.133Z,2.20
2023-04-06T02:02:36.840Z,3.97
2023-04-06T02:05:04.617Z,3.00
2023-04-06T02:07:32.218Z,2.15
2023-04-06T02:10:00.164Z,7.78
2023-04-06T02:12:28.230Z,6.80
2023-04-06T02:14:56.140Z,6.00
2023-04-06T02:17:23.681Z,3.58
2023-04-06T02:19:51.237Z,3.55
2023-04-06T02:22:18.860Z,3.42
2023-04-06T02:24:47.718Z,1.73
2023-04-06T02:27:16.504Z,4.13
2023-04-06T02:29:43.917Z,3.40
2023-04-06T02:32:11.698Z,4.60
2023-04-06T02:34:39.440Z,4.63
2023-04-06T02:37:07.032Z,3.25
2023-04-06T02:39:34.453Z,4.00
2023-04-06T02:42:02.066Z,5.28
2023-04-06T02:44:29.592Z,4.13
2023-04-06T02:46:57.678Z,3.70
2023-04-06T02:49:25.208Z,4.30
2023-04-06T02:51:52.882Z,2.25
2023-04-06T02:54:20.570Z,3.40
2023-04-06T02:56:48.127Z,3.35
2023-04-06T02:59:15.773Z,3.85
2023-04-06T03:01:43.483Z,3.22
2023-04-06T03:04:11.915Z,5.43
2023-04-06T03:06:39.670Z,4.35
2023-04-06T03:09:07.788Z,8.02
2023-04-06T03:11:36.496Z,7.38
2023-04-06T03:14:04.218Z,3.92
2023-04-06T03:16:31.846Z,6.22
2023-04-06T03:18:59.571Z,2.55
2023-04-06T03:21:27.164Z,6.30
2023-04-06T03:23:54.730Z,3.50
2023-04-06T03:26:23.346Z,2.72
2023-04-06T03:28:50.962Z,5.30
2023-04-06T03:31:18.678Z,3.42
2023-04-06T03:33:46.438Z,6.47
2023-04-06T03:36:14.101Z,3.42
2023-04-06T03:38:41.752Z,4.53
2023-04-06T03:41:09.377Z,3.60
2023-04-06T03:43:37.199Z,5.93
2023-04-06T03:46:04.447Z,4.95
2023-04-06T03:48:32.369Z,5.97
2023-04-06T03:51:00.025Z,5.18
2023-04-06T03:53:27.858Z,8.43
2023-04-06T03:55:55.409Z,4.70
2023-04-06T03:58:23.160Z,5.43
2023-04-06T04:00:50.764Z,7.85
2023-04-06T04:03:18.514Z,9.88
2023-04-06T04:05:46.206Z,5.25
2023-04-06T04:08:18.025Z,6.05
2023-04-06T04:10:45.681Z,8.43
2023-04-06T04:13:13.268Z,8.52
2023-04-06T04:15:41.337Z,6.20
2023-04-06T04:18:08.882Z,7.68
2023-04-06T04:20:36.569Z,7.72
2023-04-06T04:23:04.005Z,9.07
2023-04-06T04:25:31.719Z,5.45
2023-04-06T04:27:59.464Z,10.75
2023-04-06T04:30:27.219Z,10.55
2023-04-06T04:32:55.122Z,12.23
2023-04-06T04:35:22.787Z,6.32
2023-04-06T04:37:50.454Z,6.05
2023-04-06T04:40:18.447Z,17.70
2023-04-06T04:42:46.250Z,9.43
2023-04-06T04:45:13.974Z,14.73
2023-04-06T04:47:41.655Z,12.43
2023-04-06T04:50:09.386Z,12.43
2023-04-06T04:52:36.978Z,20.15
2023-04-06T04:55:04.751Z,20.20
2023-04-06T04:57:34.507Z,37.92
2023-04-06T05:00:03.041Z,21.60
2023-04-06T05:02:30.796Z,20.60
2023-04-06T05:04:58.627Z,13.30
2023-04-06T05:07:26.302Z,28.60
2023-04-06T05:09:53.836Z,27.52
2023-04-06T05:12:21.730Z,29.02
2023-04-06T05:14:49.696Z,14.57
2023-04-06T05:17:17.292Z,38.90
2023-04-06T05:19:45.232Z,39.88
2023-04-06T05:22:15.183Z,22.95
2023-04-06T05:24:42.840Z,23.58
2023-04-06T05:27:10.852Z,29.90
2023-04-06T05:29:38.394Z,34.78
2023-04-06T05:32:07.152Z,27.80
2023-04-06T05:34:34.989Z,26.52
2023-04-06T05:37:02.688Z,35.45
2023-04-06T05:39:30.372Z,24.45
2023-04-06T05:41:57.852Z,31.80
2023-04-06T05:44:25.546Z,16.67
2023-04-06T05:46:53.077Z,31.67
2023-04-06T05:49:21.089Z,26.65
2023-04-06T05:51:48.998Z,23.23
2023-04-06T05:54:16.506Z,26.35
2023-04-06T05:56:44.198Z,30.77
2023-04-06T05:59:11.935Z,25.48
2023-04-06T06:01:39.688Z,34.97
2023-04-06T06:04:07.557Z,18.98
2023-04-06T06:06:35.248Z,26.35
2023-04-06T06:09:04.464Z,27.38
2023-04-06T06:11:32.151Z,67.70
2023-04-06T06:14:00.141Z,54.20
2023-04-06T06:16:27.824Z,65.68
2023-04-06T06:18:56.749Z,39.15
2023-04-06T06:21:24.393Z,55.10
2023-04-06T06:23:51.959Z,31.83
2023-04-06T06:26:19.615Z,27.00
2023-04-06T06:28:47.417Z,36.65
2023-04-06T06:31:14.983Z,79.22
2023-04-06T06:33:42.550Z,48.55
2023-04-06T06:36:10.235Z,52.28
2023-04-06T06:38:37.913Z,49.08
2023-04-06T06:41:05.455Z,42.05
2023-04-06T06:43:33.020Z,59.50
2023-04-06T06:46:00.737Z,47.15
2023-04-06T06:48:28.518Z,51.20
2023-04-06T06:50:56.384Z,43.58
2023-04-06T06:53:24.105Z,27.15
2023-04-06T06:55:51.933Z,34.88
2023-04-06T06:58:22.584Z,30.48
2023-04-06T07:00:53.961Z,43.05
2023-04-06T07:03:21.926Z,52.08
2023-04-06T07:05:54.209Z,47.08
2023-04-06T07:08:25.358Z,58.08
2023-04-06T07:10:59.659Z,29.85
2023-04-06T07:13:28.800Z,75.57
2023-04-06T07:15:56.865Z,46.30
2023-04-06T07:18:24.413Z,43.40
2023-04-06T07:20:52.351Z,64.82
2023-04-06T07:23:19.962Z,91.65
2023-04-06T07:25:47.681Z,40.05
2023-04-06T07:28:15.939Z,53.22
2023-04-06T07:30:44.178Z,39.35
2023-04-06T07:33:11.926Z,35.00
2023-04-06T07:35:39.729Z,39.40
2023-04-06T07:38:07.715Z,51.08
2023-04-06T07:40:35.498Z,54.33
2023-04-06T07:43:03.243Z,52.90
2023-04-06T07:45:31.050Z,28.20
2023-04-06T07:47:58.700Z,39.83
2023-04-06T07:50:26.408Z,58.75
2023-04-06T07:52:53.912Z,51.05
2023-04-06T07:55:21.854Z,47.15
2023-04-06T07:57:49.729Z,62.22
2023-04-06T08:00:17.616Z,55.92
2023-04-06T08:02:45.570Z,35.22
2023-04-06T08:05:13.379Z,52.05
2023-04-06T08:07:41.589Z,70.95
2023-04-06T08:10:09.787Z,66.20
2023-04-06T08:12:41.123Z,32.33
2023-04-06T08:15:10.185Z,57.63
2023-04-06T08:17:39.305Z,40.30
2023-04-06T08:20:12.906Z,42.70
2023-04-06T08:22:41.305Z,64.40
2023-04-06T08:25:09.603Z,42.65
2023-04-06T08:27:40.508Z,38.97
2023-04-06T08:30:08.638Z,40.92
2023-04-06T08:32:37.030Z,39.80
2023-04-06T08:35:05.078Z,38.83
2023-04-06T08:37:36.571Z,36.03
2023-04-06T08:40:04.536Z,35.15
2023-04-06T08:42:34.618Z,39.50
2023-04-06T08:45:02.726Z,53.33
2023-04-06T08:47:30.916Z,33.83
2023-04-06T08:49:59.160Z,37.17
2023-04-06T08:52:27.579Z,36.90
2023-04-06T08:54:55.591Z,38.35
2023-04-06T08:57:24.783Z,34.15
2023-04-06T08:59:53.458Z,63.50
2023-04-06T09:02:21.326Z,34.60
2023-04-06T09:04:50.230Z,43.03
2023-04-06T09:07:25.698Z,26.08
2023-04-06T09:09:53.735Z,39.33
2023-04-06T09:12:30.687Z,31.23
2023-04-06T09:15:03.498Z,27.67
2023-04-06T09:17:34.994Z,25.17
2023-04-06T09:20:05.492Z,44.53
2023-04-06T09:22:41.661Z,40.65
2023-04-06T09:25:11.514Z,41.58
2023-04-06T09:27:45.971Z,37.75
2023-04-06T09:30:15.465Z,29.30
2023-04-06T09:33:02.470Z,43.28
2023-04-06T09:35:34.299Z,32.97
2023-04-06T09:38:12.820Z,53.35
2023-04-06T09:41:00.154Z,57.05
2023-04-06T09:43:28.955Z,30.70
2023-04-06T09:45:58.398Z,27.35
2023-04-06T09:48:30.117Z,33.42
2023-04-06T09:51:08.473Z,32.47
2023-04-06T09:53:39.680Z,20.20
2023-04-06T09:56:10.083Z,43.50
2023-04-06T09:58:39.362Z,35.63
2023-04-06T10:01:15.799Z,37.95
2023-04-06T10:03:43.928Z,45.83
2023-04-06T10:06:15.890Z,20.77
2023-04-06T10:08:44.953Z,44.83
2023-04-06T10:11:12.680Z,37.65
2023-04-06T10:13:41.398Z,28.25
2023-04-06T10:16:09.814Z,25.40
2023-04-06T10:18:37.631Z,17.17
2023-04-06T10:21:16.098Z,24.33
2023-04-06T10:23:47.170Z,25.38
2023-04-06T10:26:17.443Z,28.67
2023-04-06T10:28:46.014Z,39.88
2023-04-06T10:31:13.772Z,29.40
2023-04-06T10:33:41.921Z,36.97
2023-04-06T10:36:27.544Z,15.15
2023-04-06T10:39:01.312Z,22.95
2023-04-06T10:41:36.406Z,24.83
2023-04-06T10:44:04.461Z,27.23
2023-04-06T10:46:32.724Z,20.75
2023-04-06T10:49:12.343Z,20.60
2023-04-06T10:51:40.335Z,27.58
2023-04-06T10:54:11.564Z,27.50
2023-04-06T10:56:40.167Z,17.88
2023-04-06T10:59:10.475Z,19.15
2023-04-06T11:01:39.733Z,34.97
2023-04-06T11:04:09.618Z,23.05
2023-04-06T11:06:37.438Z,19.67
2023-04-06T11:09:05.337Z,22.52
2023-04-06T11:11:33.147Z,49.30
2023-04-06T11:14:02.258Z,23.90
2023-04-06T11:16:32.287Z,14.10
2023-04-06T11:21:34.900Z,19.73
2023-04-06T11:24:08.119Z,26.10
2023-04-06T11:26:46.063Z,33.53
2023-04-06T11:29:14.533Z,32.95
2023-04-06T11:31:43.500Z,22.48
2023-04-06T11:34:14.717Z,18.60
2023-04-06T11:36:43.096Z,28.58
2023-04-06T11:39:13.874Z,28.58
2023-04-06T11:41:42.420Z,31.48
2023-04-06T11:44:12.521Z,23.67
2023-04-06T11:49:07.751Z,20.08
2023-04-06T11:51:38.973Z,25.35
2023-04-06T11:54:06.663Z,23.23
2023-04-06T11:56:34.627Z,28.55
2023-04-06T11:59:02.414Z,25.08
2023-04-06T12:01:30.986Z,30.92
2023-04-06T12:04:00.434Z,19.15
2023-04-06T12:06:32.840Z,37.30
2023-04-06T12:09:03.887Z,16.75
2023-04-06T12:11:32.018Z,24.08
2023-04-06T12:14:02.743Z,17.88
2023-04-06T12:16:30.778Z,21.35
2023-04-06T12:18:58.631Z,15.48
2023-04-06T12:21:26.496Z,15.68
2023-04-06T12:23:54.179Z,23.67
2023-04-06T12:26:22.704Z,17.08
2023-04-06T12:28:51.231Z,19.88
2023-04-06T12:31:26.905Z,13.85
2023-04-06T12:33:54.739Z,25.15
2023-04-06T12:36:23.040Z,14.75
2023-04-06T12:38:51.032Z,20.35
2023-04-06T12:41:21.694Z,18.17
2023-04-06T12:43:53.718Z,9.40
2023-04-06T12:46:21.975Z,31.88
2023-04-06T12:48:49.931Z,20.58
2023-04-06T12:51:18.673Z,23.85
2023-04-06T12:53:48.989Z,18.33
2023-04-06T12:56:18.549Z,24.17
2023-04-06T12:58:46.835Z,22.92
2023-04-06T13:01:14.854Z,21.67
2023-04-06T13:03:43.027Z,341.38
2023-04-06T13:06:10.851Z,32.22
2023-04-06T13:08:39.269Z,14.70
2023-04-06T13:11:09.293Z,24.83
2023-04-06T13:13:37.792Z,32.58
2023-04-06T13:16:07.038Z,25.27
2023-04-06T13:18:35.539Z,23.85
2023-04-06T13:21:03.358Z,12.15
2023-04-06T13:23:31.277Z,24.13
2023-04-06T13:26:00.722Z,26.35
2023-04-06T13:28:29.827Z,13.13
2023-04-06T13:30:57.724Z,15.93
2023-04-06T13:33:26.309Z,32.65
2023-04-06T13:35:53.868Z,480.65
2023-04-06T13:38:21.548Z,17.17
2023-04-06T13:40:50.947Z,525.13
2023-04-06T13:43:20.608Z,7.95
2023-04-06T13:45:59.274Z,6.60
2023-04-06T13:48:27.362Z,7.28
2023-04-06T13:50:55.169Z,14.98
2023-04-06T13:53:22.857Z,11.00
2023-04-06T13:55:59.523Z,15.98
2023-04-06T13:58:27.812Z,13.15
2023-04-06T14:00:55.794Z,14.25
2023-04-06T14:03:24.688Z,7.78
2023-04-06T14:05:52.613Z,14.45
2023-04-06T14:08:23.248Z,16.63
2023-04-06T14:10:50.935Z,136.80
2023-04-06T14:13:21.248Z,14.23
2023-04-06T14:15:59.539Z,19.05
2023-04-06T14:18:31.861Z,521.50
2023-04-06T14:21:00.183Z,15.43
2023-04-06T14:23:28.886Z,14.77
2023-04-06T14:26:04.934Z,14.95
2023-04-06T14:31:01.678Z,14.27
2023-04-06T14:33:29.573Z,7.78
2023-04-06T14:35:57.454Z,13.88
2023-04-06T14:38:28.250Z,16.10
2023-04-06T14:40:57.101Z,11.25
2023-04-06T14:43:25.104Z,10.77
2023-04-06T14:45:55.290Z,12.23
2023-04-06T14:48:23.323Z,16.58
2023-04-06T14:50:57.667Z,15.38
2023-04-06T14:53:25.601Z,15.50
2023-04-06T14:55:53.573Z,10.77
2023-04-06T14:58:22.055Z,14.30
2023-04-06T15:00:57.175Z,13.15
2023-04-06T15:03:27.210Z,21.40
2023-04-06T15:05:56.772Z,11.35
2023-04-06T15:08:26.564Z,560.28
2023-04-06T15:10:57.114Z,576.95
2023-04-06T15:13:28.589Z,19.40
2023-04-06T15:15:58.682Z,102.45
2023-04-06T15:18:28.602Z,8.25
2023-04-06T15:20:57.761Z,28.65
2023-04-06T15:23:26.336Z,9.07
2023-04-06T15:25:54.754Z,12.98
2023-04-06T15:28:22.794Z,20.75
2023-04-06T15:30:52.378Z,517.08
2023-04-06T15:33:24.505Z,623.83
2023-04-06T15:35:53.967Z,611.85
2023-04-06T15:38:22.474Z,622.92
2023-04-06T15:40:51.140Z,636.78
2023-04-06T15:43:22.446Z,639.75
2023-04-06T15:45:55.368Z,404.35
2023-04-06T15:48:24.597Z,462.45
2023-04-06T15:50:53.744Z,457.33
2023-04-06T15:53:26.809Z,468.52
2023-04-06T15:56:05.384Z,442.13
2023-04-06T15:58:35.155Z,461.80
2023-04-06T16:01:06.913Z,462.45
2023-04-06T16:03:35.764Z,431.13
2023-04-06T16:06:08.857Z,431.17
2023-04-06T16:08:38.529Z,436.30
2023-04-06T16:11:07.728Z,441.27
2023-04-06T16:13:38.111Z,432.55
2023-04-06T16:16:12.717Z,442.98
2023-04-06T16:18:41.814Z,368.52
2023-04-06T16:21:10.649Z,335.90
2023-04-06T16:23:43.767Z,379.73
2023-04-06T16:26:18.615Z,323.00
2023-04-06T16:28:48.497Z,315.95
2023-04-06T16:33:52.489Z,328.35
2023-04-06T16:36:24.983Z,324.08
2023-04-06T16:38:53.316Z,313.45
2023-04-06T16:41:22.722Z,315.38
2023-04-06T16:43:52.362Z,326.80
2023-04-06T16:46:21.725Z,312.45
2023-04-06T16:48:49.798Z,303.33
2023-04-06T16:51:20.665Z,302.88
2023-04-06T16:53:49.143Z,302.95
2023-04-06T16:56:16.752Z,344.42
2023-04-06T16:58:46.257Z,304.30
2023-04-06T17:01:33.492Z,314.77
2023-04-06T17:04:02.461Z,313.50
2023-04-06T17:06:31.138Z,291.00
2023-04-06T17:09:00.172Z,304.35
2023-04-06T17:11:43.669Z,282.20
2023-04-06T17:14:15.307Z,289.25
2023-04-06T17:16:43.029Z,284.63
2023-04-06T17:19:11.081Z,284.23
2023-04-06T17:21:40.652Z,269.65
2023-04-06T17:24:08.970Z,265.45
2023-04-06T17:26:36.745Z,285.67
2023-04-06T17:29:04.664Z,251.00
2023-04-06T17:31:32.356Z,248.38
2023-04-06T17:33:59.996Z,243.43
2023-04-06T17:36:28.644Z,237.80
2023-04-06T17:38:56.555Z,228.63
2023-04-06T17:41:24.334Z,232.75
2023-04-06T17:43:52.259Z,244.48
2023-04-06T17:46:21.526Z,242.52
2023-04-06T17:48:49.475Z,244.95
2023-04-06T17:51:19.435Z,249.63
2023-04-06T17:56:14.651Z,247.90
2023-04-06T17:58:42.403Z,245.20
2023-04-06T18:01:13.155Z,237.75
2023-04-06T18:03:40.999Z,231.50
2023-04-06T18:06:15.838Z,239.73
2023-04-06T18:08:43.824Z,241.55
2023-04-06T18:11:21.996Z,260.25
2023-04-06T18:13:50.577Z,240.05
2023-04-06T18:16:21.245Z,248.10
2023-04-06T18:18:49.344Z,236.80
2023-04-06T18:21:17.175Z,229.00
2023-04-06T18:23:44.932Z,244.80
2023-04-06T18:26:17.386Z,220.15
2023-04-06T18:28:45.116Z,243.82
2023-04-06T18:31:12.853Z,236.35
2023-04-06T18:33:44.131Z,235.55
2023-04-06T18:36:11.929Z,239.75
2023-04-06T18:38:43.910Z,237.32
2023-04-06T18:41:11.761Z,237.75
2023-04-06T18:43:40.344Z,247.27
2023-04-06T18:46:12.600Z,249.10
2023-04-06T18:48:40.684Z,242.57
2023-04-06T18:51:08.508Z,248.15
2023-04-06T18:53:37.913Z,301.88
2023-04-06T18:56:20.719Z,361.02
2023-04-06T18:58:49.366Z,426.92
2023-04-06T19:01:28.754Z,448.58
2023-04-06T19:03:57.442Z,384.65
2023-04-06T19:06:27.124Z,444.70
2023-04-06T19:08:56.609Z,443.45
2023-04-06T19:11:25.370Z,433.40
2023-04-06T19:13:54.590Z,481.42
2023-04-06T19:16:22.440Z,355.73
2023-04-06T19:18:53.448Z,284.00
2023-04-06T19:21:25.249Z,274.83
2023-04-06T19:23:55.446Z,280.20
2023-04-06T19:26:24.239Z,295.77
2023-04-06T19:28:52.057Z,292.15
2023-04-06T19:31:20.309Z,270.85
2023-04-06T19:33:48.277Z,265.88
2023-04-06T19:36:16.378Z,276.25
2023-04-06T19:38:44.328Z,269.90
2023-04-06T19:41:12.090Z,351.98
2023-04-06T19:43:39.837Z,416.70
2023-04-06T19:46:09.251Z,459.38
2023-04-06T19:48:37.384Z,514.80
2023-04-06T19:51:05.244Z,514.40
2023-04-06T19:53:32.998Z,485.23
2023-04-06T19:56:00.708Z,515.53
2023-04-06T19:58:28.413Z,331.88
2023-04-06T20:00:56.136Z,398.75
2023-04-06T20:03:24.026Z,433.52
2023-04-06T20:05:51.812Z,456.50
2023-04-06T20:08:19.773Z,476.13
2023-04-06T20:10:47.526Z,485.20
2023-04-06T20:13:16.955Z,467.25
2023-04-06T20:15:45.328Z,505.45
2023-04-06T20:18:13.061Z,516.25
2023-04-06T20:20:40.909Z,493.05
2023-04-06T20:23:08.707Z,491.48
2023-04-06T20:25:36.572Z,344.05
2023-04-06T20:28:06.681Z,345.50
2023-04-06T20:30:34.578Z,306.05
2023-04-06T20:33:02.285Z,314.13
2023-04-06T20:35:31.245Z,298.75
2023-04-06T20:37:59.296Z,311.27
2023-04-06T20:40:27.428Z,308.40
2023-04-06T20:42:55.905Z,296.25
2023-04-06T20:45:23.726Z,293.52
2023-04-06T20:47:54.942Z,304.73
2023-04-06T20:50:23.398Z,292.35
2023-04-06T20:52:51.164Z,294.50
2023-04-06T20:55:18.900Z,295.17
2023-04-06T20:57:46.666Z,291.15
2023-04-06T21:00:14.896Z,286.35
2023-04-06T21:02:43.012Z,279.20
2023-04-06T21:05:11.246Z,282.80
2023-04-06T21:07:39.199Z,272.92
2023-04-06T21:10:07.285Z,282.45
2023-04-06T21:12:35.460Z,276.70
2023-04-06T21:15:04.669Z,273.88
2023-04-06T21:17:36.236Z,285.30
2023-04-06T21:20:07.204Z,391.90
2023-04-06T21:22:35.090Z,435.15
2023-04-06T21:25:02.868Z,461.55
2023-04-06T21:27:30.953Z,490.83
2023-04-06T21:29:58.585Z,454.77
2023-04-06T21:32:26.401Z,490.83
2023-04-06T21:34:54.342Z,484.55
2023-04-06T21:37:22.220Z,299.05
2023-04-06T21:39:50.090Z,292.13
2023-04-06T21:42:18.009Z,292.58
2023-04-06T21:44:45.672Z,296.88
2023-04-06T21:47:13.544Z,288.30
2023-04-06T21:49:41.627Z,287.73
2023-04-06T21:52:09.365Z,272.05
2023-04-06T21:54:37.298Z,242.85
2023-04-06T21:57:05.252Z,323.55
2023-04-06T21:59:33.226Z,388.30
2023-04-06T22:02:01.137Z,428.38
2023-04-06T22:04:28.982Z,460.73
2023-04-06T22:06:56.870Z,474.30
2023-04-06T22:09:24.691Z,473.70
2023-04-06T22:11:52.547Z,495.50
2023-04-06T22:14:21.044Z,495.80
2023-04-06T22:16:49.088Z,269.05
2023-04-06T22:19:16.963Z,274.85
2023-04-06T22:21:45.392Z,289.15
2023-04-06T22:24:13.234Z,293.88
2023-04-06T22:26:41.060Z,286.38
2023-04-06T22:29:08.891Z,305.13
2023-04-06T22:31:36.791Z,294.30
2023-04-06T22:34:04.468Z,312.83
2023-04-06T22:36:32.223Z,306.15
2023-04-06T22:38:59.992Z,300.33
2023-04-06T22:41:28.088Z,295.35
2023-04-06T22:43:55.972Z,300.88
2023-04-06T22:46:23.694Z,289.80
2023-04-06T22:48:51.711Z,291.05
2023-04-06T22:51:19.639Z,276.35
2023-04-06T22:53:47.446Z,274.85
2023-04-06T22:56:15.343Z,297.80
2023-04-06T22:58:43.125Z,389.25
2023-04-06T23:01:11.115Z,430.75
2023-04-06T23:03:39.100Z,454.17
2023-04-06T23:06:10.152Z,505.52
2023-04-06T23:08:37.965Z,544.95
2023-04-06T23:11:05.681Z,387.48
2023-04-06T23:13:35.339Z,267.13
2023-04-06T23:16:03.044Z,283.25
2023-04-06T23:18:34.007Z,289.83
2023-04-06T23:21:02.151Z,302.92
2023-04-06T23:23:29.861Z,287.45
2023-04-06T23:25:57.648Z,289.70
2023-04-06T23:28:25.467Z,287.50
2023-04-06T23:30:53.097Z,291.73
2023-04-06T23:33:21.081Z,285.15
2023-04-06T23:35:48.754Z,280.55
2023-04-06T23:38:16.642Z,280.42
2023-04-06T23:40:44.414Z,280.05
2023-04-06T23:43:11.976Z,281.42
2023-04-06T23:45:43.391Z,277.38
2023-04-06T23:48:11.341Z,279.30
2023-04-06T23:50:39.231Z,283.85
2023-04-06T23:53:07.288Z,297.30
2023-04-06T23:55:35.393Z,297.05
2023-04-06T23:58:04.201Z,299.10
